Terminal Aerodrome Forecast
Issued by NWS

Home | Current Version | Previous Version | Text Only | Print | Product List | Glossary On
Versions: 1 2 3 4 5 6 7 8 9 10 11 12 13 14 15 16 17 18 19 20 21 22 23
000
FTUS42 KFFC 241933 AAA
TAFPDK
TAF AMD
KPDK 241933Z 2420/2518 25008KT P6SM VCSH BKN025
      TEMPO 2420/2424 VRB15G25KT 3SM TSRA BR BKN025CB
     FM250000 28003KT P6SM BKN040
     FM250600 32007KT P6SM SCT040 BKN250
     FM251400 32010KT P6SM FEW035 SCT100=

USA.gov is the U.S. government's official web portal to all federal, state and local government web resources and services.